Scenic, South Dakota
Current Conditions -  °F | °C
As of 6:52 AM on Thursday 30 Oct 2014 (Local Time) from KRAP Reporting Station
Clear Clear  
Wind Chill:   Ceiling: Unl
Heat Index:   Visibility: 10mi
Dew Point: -1°   Wind: 10mph
Humidity: 70%   Direction: 350°N
Pressure: 30.22"   Gusts: NA
Location:  43.78°N, 102.56°W
Report Text: KRAP 301252Z 35009KT 10SM CLR 04/M01 A3022 RMK AO2 SLP246 T00391011
Loading
Personal Weather Stations






























Interactive Weather Map
Tropical Storm Tracking
New forecast layout! Learn more

10-Day Weather Forecast

Advertisements
Track Severe Weather on mobile